sensor_id;sensor_type;location;lat;lon;timestamp;P1;durP1;ratioP1;P2;durP2;ratioP2
51636;SDS011;37713;53.254;6.460;2023-12-14T00:01:40;14.77;;;6.00;;
51636;SDS011;37713;53.254;6.460;2023-12-14T00:04:06;15.13;;;7.03;;
51636;SDS011;37713;53.254;6.460;2023-12-14T00:06:33;12.63;;;6.80;;
51636;SDS011;37713;53.254;6.460;2023-12-14T00:08:58;13.60;;;6.57;;
51636;SDS011;37713;53.254;6.460;2023-12-14T00:11:24;12.32;;;6.38;;
51636;SDS011;37713;53.254;6.460;2023-12-14T00:13:50;11.75;;;5.72;;
51636;SDS011;37713;53.254;6.460;2023-12-14T00:16:16;10.75;;;6.20;;
51636;SDS011;37713;53.254;6.460;2023-12-14T00:18:42;11.20;;;5.85;;
51636;SDS011;37713;53.254;6.460;2023-12-14T00:21:08;12.55;;;6.70;;
51636;SDS011;37713;53.254;6.460;2023-12-14T00:23:34;15.85;;;6.88;;
51636;SDS011;37713;53.254;6.460;2023-12-14T00:25:59;12.43;;;6.03;;
51636;SDS011;37713;53.254;6.460;2023-12-14T00:28:25;12.65;;;6.43;;
51636;SDS011;37713;53.254;6.460;2023-12-14T00:30:51;13.05;;;6.45;;
51636;SDS011;37713;53.254;6.460;2023-12-14T00:33:17;13.82;;;6.50;;
51636;SDS011;37713;53.254;6.460;2023-12-14T00:35:43;12.02;;;6.63;;
51636;SDS011;37713;53.254;6.460;2023-12-14T00:38:08;14.40;;;7.28;;
51636;SDS011;37713;53.254;6.460;2023-12-14T00:40:34;11.80;;;5.95;;
51636;SDS011;37713;53.254;6.460;2023-12-14T00:43:00;15.40;;;6.95;;
51636;SDS011;37713;53.254;6.460;2023-12-14T00:45:26;13.65;;;6.35;;
51636;SDS011;37713;53.254;6.460;2023-12-14T00:47:52;12.07;;;5.80;;
51636;SDS011;37713;53.254;6.460;2023-12-14T00:50:17;13.38;;;5.85;;
51636;SDS011;37713;53.254;6.460;2023-12-14T00:52:43;9.30;;;5.82;;
51636;SDS011;37713;53.254;6.460;2023-12-14T00:55:09;12.38;;;5.57;;
51636;SDS011;37713;53.254;6.460;2023-12-14T00:57:34;10.98;;;5.72;;
51636;SDS011;37713;53.254;6.460;2023-12-14T01:00:00;12.32;;;6.05;;
51636;SDS011;37713;53.254;6.460;2023-12-14T01:02:26;13.55;;;6.40;;
51636;SDS011;37713;53.254;6.460;2023-12-14T01:04:52;16.52;;;6.38;;
51636;SDS011;37713;53.254;6.460;2023-12-14T01:07:17;10.20;;;5.45;;
51636;SDS011;37713;53.254;6.460;2023-12-14T01:09:43;14.00;;;6.25;;
51636;SDS011;37713;53.254;6.460;2023-12-14T01:12:09;14.15;;;6.72;;
51636;SDS011;37713;53.254;6.460;2023-12-14T01:14:35;13.15;;;6.65;;
51636;SDS011;37713;53.254;6.460;2023-12-14T01:17:01;13.88;;;6.68;;
51636;SDS011;37713;53.254;6.460;2023-12-14T01:19:27;14.18;;;6.88;;
51636;SDS011;37713;53.254;6.460;2023-12-14T01:21:53;14.70;;;6.80;;
51636;SDS011;37713;53.254;6.460;2023-12-14T01:24:20;14.70;;;7.05;;
51636;SDS011;37713;53.254;6.460;2023-12-14T01:26:46;19.00;;;7.85;;
51636;SDS011;37713;53.254;6.460;2023-12-14T01:29:12;16.13;;;8.13;;
51636;SDS011;37713;53.254;6.460;2023-12-14T01:31:37;20.92;;;8.18;;
51636;SDS011;37713;53.254;6.460;2023-12-14T01:34:03;21.48;;;8.52;;
51636;SDS011;37713;53.254;6.460;2023-12-14T01:36:29;19.27;;;8.70;;
51636;SDS011;37713;53.254;6.460;2023-12-14T01:38:55;18.90;;;8.77;;
51636;SDS011;37713;53.254;6.460;2023-12-14T01:41:21;16.13;;;8.65;;
51636;SDS011;37713;53.254;6.460;2023-12-14T01:43:46;18.05;;;8.57;;
51636;SDS011;37713;53.254;6.460;2023-12-14T01:46:12;19.52;;;7.88;;
51636;SDS011;37713;53.254;6.460;2023-12-14T01:48:40;17.63;;;7.18;;
51636;SDS011;37713;53.254;6.460;2023-12-14T01:51:06;13.82;;;7.05;;
51636;SDS011;37713;53.254;6.460;2023-12-14T01:53:32;15.13;;;8.15;;
51636;SDS011;37713;53.254;6.460;2023-12-14T01:55:57;16.85;;;7.22;;
51636;SDS011;37713;53.254;6.460;2023-12-14T01:58:23;16.67;;;7.60;;
51636;SDS011;37713;53.254;6.460;2023-12-14T02:03:28;17.30;;;7.60;;
51636;SDS011;37713;53.254;6.460;2023-12-14T02:05:54;19.13;;;6.70;;
51636;SDS011;37713;53.254;6.460;2023-12-14T02:08:20;20.17;;;7.68;;
51636;SDS011;37713;53.254;6.460;2023-12-14T02:10:46;18.17;;;7.70;;
51636;SDS011;37713;53.254;6.460;2023-12-14T02:13:13;20.98;;;7.18;;
51636;SDS011;37713;53.254;6.460;2023-12-14T02:15:39;18.80;;;7.68;;
51636;SDS011;37713;53.254;6.460;2023-12-14T02:18:04;16.05;;;8.00;;
51636;SDS011;37713;53.254;6.460;2023-12-14T02:20:30;17.35;;;7.65;;
51636;SDS011;37713;53.254;6.460;2023-12-14T02:22:56;17.40;;;7.30;;
51636;SDS011;37713;53.254;6.460;2023-12-14T02:25:23;15.98;;;7.40;;
51636;SDS011;37713;53.254;6.460;2023-12-14T02:27:50;14.63;;;7.13;;
51636;SDS011;37713;53.254;6.460;2023-12-14T02:30:19;17.95;;;7.60;;
51636;SDS011;37713;53.254;6.460;2023-12-14T02:32:45;14.73;;;6.90;;
51636;SDS011;37713;53.254;6.460;2023-12-14T02:35:11;15.48;;;6.90;;
51636;SDS011;37713;53.254;6.460;2023-12-14T02:37:36;18.02;;;7.78;;
51636;SDS011;37713;53.254;6.460;2023-12-14T02:40:03;12.57;;;7.05;;
51636;SDS011;37713;53.254;6.460;2023-12-14T02:42:29;14.82;;;7.22;;
51636;SDS011;37713;53.254;6.460;2023-12-14T02:44:56;15.43;;;6.80;;
51636;SDS011;37713;53.254;6.460;2023-12-14T02:47:22;16.90;;;6.65;;
51636;SDS011;37713;53.254;6.460;2023-12-14T02:49:48;15.45;;;7.70;;
51636;SDS011;37713;53.254;6.460;2023-12-14T02:52:14;18.02;;;7.45;;
51636;SDS011;37713;53.254;6.460;2023-12-14T02:54:40;16.50;;;8.02;;
51636;SDS011;37713;53.254;6.460;2023-12-14T02:57:05;18.80;;;7.72;;
51636;SDS011;37713;53.254;6.460;2023-12-14T02:59:31;18.58;;;8.05;;
51636;SDS011;37713;53.254;6.460;2023-12-14T03:01:57;19.02;;;8.50;;
51636;SDS011;37713;53.254;6.460;2023-12-14T03:04:23;20.23;;;8.27;;
51636;SDS011;37713;53.254;6.460;2023-12-14T03:06:49;17.48;;;8.07;;
51636;SDS011;37713;53.254;6.460;2023-12-14T03:09:15;20.25;;;8.50;;
51636;SDS011;37713;53.254;6.460;2023-12-14T03:11:41;17.73;;;8.23;;
51636;SDS011;37713;53.254;6.460;2023-12-14T03:14:07;19.33;;;8.23;;
51636;SDS011;37713;53.254;6.460;2023-12-14T03:16:32;21.50;;;8.60;;
51636;SDS011;37713;53.254;6.460;2023-12-14T03:19:00;20.27;;;8.65;;
51636;SDS011;37713;53.254;6.460;2023-12-14T03:21:26;17.20;;;7.65;;
51636;SDS011;37713;53.254;6.460;2023-12-14T03:23:52;21.73;;;9.10;;
51636;SDS011;37713;53.254;6.460;2023-12-14T03:26:18;17.63;;;8.38;;
51636;SDS011;37713;53.254;6.460;2023-12-14T03:28:43;15.43;;;8.18;;
51636;SDS011;37713;53.254;6.460;2023-12-14T03:31:13;21.52;;;9.45;;
51636;SDS011;37713;53.254;6.460;2023-12-14T03:33:39;22.85;;;9.82;;
51636;SDS011;37713;53.254;6.460;2023-12-14T03:36:05;20.75;;;9.15;;
51636;SDS011;37713;53.254;6.460;2023-12-14T03:38:31;19.45;;;9.20;;
51636;SDS011;37713;53.254;6.460;2023-12-14T03:40:58;21.38;;;9.63;;
51636;SDS011;37713;53.254;6.460;2023-12-14T03:43:24;16.92;;;8.80;;
51636;SDS011;37713;53.254;6.460;2023-12-14T03:45:49;23.48;;;10.50;;
51636;SDS011;37713;53.254;6.460;2023-12-14T03:48:15;23.58;;;10.10;;
51636;SDS011;37713;53.254;6.460;2023-12-14T03:50:41;18.95;;;8.48;;
51636;SDS011;37713;53.254;6.460;2023-12-14T03:53:07;19.30;;;9.43;;
51636;SDS011;37713;53.254;6.460;2023-12-14T03:55:33;22.60;;;9.88;;
51636;SDS011;37713;53.254;6.460;2023-12-14T03:57:59;22.15;;;9.15;;
51636;SDS011;37713;53.254;6.460;2023-12-14T04:00:25;22.27;;;9.93;;
51636;SDS011;37713;53.254;6.460;2023-12-14T04:02:51;21.98;;;9.75;;
51636;SDS011;37713;53.254;6.460;2023-12-14T04:05:16;20.52;;;9.95;;
51636;SDS011;37713;53.254;6.460;2023-12-14T04:07:43;20.05;;;9.48;;
51636;SDS011;37713;53.254;6.460;2023-12-14T04:10:09;20.25;;;9.68;;
51636;SDS011;37713;53.254;6.460;2023-12-14T04:12:39;19.08;;;9.45;;
51636;SDS011;37713;53.254;6.460;2023-12-14T04:15:05;21.55;;;9.75;;
51636;SDS011;37713;53.254;6.460;2023-12-14T04:17:32;18.08;;;9.27;;
51636;SDS011;37713;53.254;6.460;2023-12-14T04:19:58;20.38;;;9.07;;
51636;SDS011;37713;53.254;6.460;2023-12-14T04:22:24;20.15;;;10.13;;
51636;SDS011;37713;53.254;6.460;2023-12-14T04:24:51;20.23;;;9.35;;
51636;SDS011;37713;53.254;6.460;2023-12-14T04:27:17;21.67;;;9.95;;
51636;SDS011;37713;53.254;6.460;2023-12-14T04:29:43;22.52;;;9.73;;
51636;SDS011;37713;53.254;6.460;2023-12-14T04:32:09;19.50;;;9.93;;
51636;SDS011;37713;53.254;6.460;2023-12-14T04:34:35;20.13;;;9.77;;
51636;SDS011;37713;53.254;6.460;2023-12-14T04:37:01;23.15;;;9.80;;
51636;SDS011;37713;53.254;6.460;2023-12-14T04:39:27;19.95;;;9.18;;
51636;SDS011;37713;53.254;6.460;2023-12-14T04:41:53;22.90;;;9.70;;
51636;SDS011;37713;53.254;6.460;2023-12-14T04:44:19;21.10;;;9.32;;
51636;SDS011;37713;53.254;6.460;2023-12-14T04:46:46;23.60;;;10.30;;
51636;SDS011;37713;53.254;6.460;2023-12-14T04:49:13;23.40;;;10.52;;
51636;SDS011;37713;53.254;6.460;2023-12-14T04:51:39;20.67;;;9.30;;
51636;SDS011;37713;53.254;6.460;2023-12-14T04:54:05;22.27;;;9.70;;
51636;SDS011;37713;53.254;6.460;2023-12-14T04:56:31;20.42;;;9.45;;
51636;SDS011;37713;53.254;6.460;2023-12-14T04:58:57;19.55;;;9.75;;
51636;SDS011;37713;53.254;6.460;2023-12-14T05:01:23;21.38;;;9.50;;
51636;SDS011;37713;53.254;6.460;2023-12-14T05:03:52;20.75;;;9.40;;
51636;SDS011;37713;53.254;6.460;2023-12-14T05:06:18;23.05;;;10.10;;
51636;SDS011;37713;53.254;6.460;2023-12-14T05:08:44;19.88;;;10.05;;
51636;SDS011;37713;53.254;6.460;2023-12-14T05:11:11;24.02;;;9.60;;
51636;SDS011;37713;53.254;6.460;2023-12-14T05:13:37;17.88;;;9.30;;
51636;SDS011;37713;53.254;6.460;2023-12-14T05:16:03;22.02;;;10.25;;
51636;SDS011;37713;53.254;6.460;2023-12-14T05:18:29;24.10;;;9.65;;
51636;SDS011;37713;53.254;6.460;2023-12-14T05:20:55;23.13;;;9.02;;
51636;SDS011;37713;53.254;6.460;2023-12-14T05:23:21;19.52;;;9.02;;
51636;SDS011;37713;53.254;6.460;2023-12-14T05:25:47;23.95;;;9.75;;
51636;SDS011;37713;53.254;6.460;2023-12-14T05:28:13;18.98;;;9.80;;
51636;SDS011;37713;53.254;6.460;2023-12-14T05:30:39;23.63;;;10.13;;
51636;SDS011;37713;53.254;6.460;2023-12-14T05:33:04;22.98;;;10.00;;
51636;SDS011;37713;53.254;6.460;2023-12-14T05:35:30;25.20;;;9.75;;
51636;SDS011;37713;53.254;6.460;2023-12-14T05:37:56;22.63;;;10.23;;
51636;SDS011;37713;53.254;6.460;2023-12-14T05:40:22;26.95;;;10.27;;
51636;SDS011;37713;53.254;6.460;2023-12-14T05:42:47;23.95;;;10.68;;
51636;SDS011;37713;53.254;6.460;2023-12-14T05:45:13;19.13;;;9.50;;
51636;SDS011;37713;53.254;6.460;2023-12-14T05:47:39;25.13;;;10.07;;
51636;SDS011;37713;53.254;6.460;2023-12-14T05:50:07;26.35;;;10.90;;
51636;SDS011;37713;53.254;6.460;2023-12-14T05:52:35;32.55;;;16.83;;
51636;SDS011;37713;53.254;6.460;2023-12-14T05:55:01;30.42;;;13.98;;
51636;SDS011;37713;53.254;6.460;2023-12-14T05:57:27;37.83;;;16.92;;
51636;SDS011;37713;53.254;6.460;2023-12-14T05:59:53;23.92;;;10.88;;
51636;SDS011;37713;53.254;6.460;2023-12-14T06:02:19;26.23;;;11.02;;
51636;SDS011;37713;53.254;6.460;2023-12-14T06:04:45;25.67;;;10.63;;
51636;SDS011;37713;53.254;6.460;2023-12-14T06:07:13;21.92;;;10.55;;
51636;SDS011;37713;53.254;6.460;2023-12-14T06:09:40;29.75;;;10.82;;
51636;SDS011;37713;53.254;6.460;2023-12-14T06:12:06;27.98;;;11.68;;
51636;SDS011;37713;53.254;6.460;2023-12-14T06:14:32;28.10;;;11.25;;
51636;SDS011;37713;53.254;6.460;2023-12-14T06:16:58;26.17;;;11.68;;
51636;SDS011;37713;53.254;6.460;2023-12-14T06:19:24;31.38;;;12.23;;
51636;SDS011;37713;53.254;6.460;2023-12-14T06:21:49;36.50;;;13.60;;
51636;SDS011;37713;53.254;6.460;2023-12-14T06:24:15;26.70;;;11.10;;
51636;SDS011;37713;53.254;6.460;2023-12-14T06:26:41;34.85;;;12.90;;
51636;SDS011;37713;53.254;6.460;2023-12-14T06:29:08;30.95;;;13.07;;
51636;SDS011;37713;53.254;6.460;2023-12-14T06:31:35;29.42;;;12.73;;
51636;SDS011;37713;53.254;6.460;2023-12-14T06:34:01;25.02;;;11.65;;
51636;SDS011;37713;53.254;6.460;2023-12-14T06:36:32;25.52;;;11.15;;
51636;SDS011;37713;53.254;6.460;2023-12-14T06:39:00;23.80;;;10.85;;
51636;SDS011;37713;53.254;6.460;2023-12-14T06:41:27;25.35;;;10.85;;
51636;SDS011;37713;53.254;6.460;2023-12-14T06:43:53;24.10;;;10.73;;
51636;SDS011;37713;53.254;6.460;2023-12-14T06:46:20;24.92;;;11.43;;
51636;SDS011;37713;53.254;6.460;2023-12-14T06:48:46;25.42;;;10.63;;
51636;SDS011;37713;53.254;6.460;2023-12-14T06:51:12;23.77;;;10.32;;
51636;SDS011;37713;53.254;6.460;2023-12-14T06:53:42;22.92;;;10.73;;
51636;SDS011;37713;53.254;6.460;2023-12-14T06:58:36;23.77;;;10.32;;
51636;SDS011;37713;53.254;6.460;2023-12-14T07:01:06;25.75;;;10.43;;
51636;SDS011;37713;53.254;6.460;2023-12-14T07:03:32;22.70;;;10.63;;
51636;SDS011;37713;53.254;6.460;2023-12-14T07:05:58;21.95;;;10.80;;
51636;SDS011;37713;53.254;6.460;2023-12-14T07:08:24;25.75;;;11.35;;
51636;SDS011;37713;53.254;6.460;2023-12-14T07:10:50;28.20;;;11.02;;
51636;SDS011;37713;53.254;6.460;2023-12-14T07:13:16;27.55;;;11.52;;
51636;SDS011;37713;53.254;6.460;2023-12-14T07:15:42;22.65;;;10.77;;
51636;SDS011;37713;53.254;6.460;2023-12-14T07:18:08;21.42;;;10.45;;
51636;SDS011;37713;53.254;6.460;2023-12-14T07:20:34;24.98;;;11.13;;
51636;SDS011;37713;53.254;6.460;2023-12-14T07:22:59;25.15;;;11.60;;
51636;SDS011;37713;53.254;6.460;2023-12-14T07:25:25;23.50;;;11.27;;
51636;SDS011;37713;53.254;6.460;2023-12-14T07:27:51;28.55;;;11.15;;
51636;SDS011;37713;53.254;6.460;2023-12-14T07:30:17;28.25;;;11.70;;
51636;SDS011;37713;53.254;6.460;2023-12-14T07:32:43;26.10;;;10.88;;
51636;SDS011;37713;53.254;6.460;2023-12-14T07:35:09;24.95;;;11.98;;
51636;SDS011;37713;53.254;6.460;2023-12-14T07:37:35;25.95;;;11.02;;
51636;SDS011;37713;53.254;6.460;2023-12-14T07:40:01;26.90;;;11.73;;
51636;SDS011;37713;53.254;6.460;2023-12-14T07:42:28;21.45;;;10.38;;
51636;SDS011;37713;53.254;6.460;2023-12-14T07:44:54;22.52;;;10.55;;
51636;SDS011;37713;53.254;6.460;2023-12-14T07:47:19;24.75;;;11.40;;
51636;SDS011;37713;53.254;6.460;2023-12-14T07:49:45;28.92;;;12.00;;
51636;SDS011;37713;53.254;6.460;2023-12-14T07:52:11;24.05;;;11.13;;
51636;SDS011;37713;53.254;6.460;2023-12-14T07:54:38;24.30;;;11.13;;
51636;SDS011;37713;53.254;6.460;2023-12-14T07:57:05;28.70;;;12.00;;
51636;SDS011;37713;53.254;6.460;2023-12-14T07:59:30;28.58;;;11.07;;
51636;SDS011;37713;53.254;6.460;2023-12-14T08:01:56;27.33;;;11.85;;
51636;SDS011;37713;53.254;6.460;2023-12-14T08:04:22;26.23;;;12.27;;
51636;SDS011;37713;53.254;6.460;2023-12-14T08:06:48;25.98;;;12.55;;
51636;SDS011;37713;53.254;6.460;2023-12-14T08:09:14;33.85;;;12.88;;
51636;SDS011;37713;53.254;6.460;2023-12-14T08:11:40;29.75;;;12.75;;
51636;SDS011;37713;53.254;6.460;2023-12-14T08:14:06;25.83;;;12.65;;
51636;SDS011;37713;53.254;6.460;2023-12-14T08:16:31;23.65;;;11.82;;
51636;SDS011;37713;53.254;6.460;2023-12-14T08:18:57;23.65;;;12.18;;
51636;SDS011;37713;53.254;6.460;2023-12-14T08:21:26;28.48;;;12.80;;
51636;SDS011;37713;53.254;6.460;2023-12-14T08:23:52;28.90;;;12.77;;
51636;SDS011;37713;53.254;6.460;2023-12-14T08:26:17;29.77;;;12.57;;
51636;SDS011;37713;53.254;6.460;2023-12-14T08:28:43;26.38;;;12.10;;
51636;SDS011;37713;53.254;6.460;2023-12-14T08:31:09;25.83;;;11.57;;
51636;SDS011;37713;53.254;6.460;2023-12-14T08:33:37;29.38;;;11.85;;
51636;SDS011;37713;53.254;6.460;2023-12-14T08:36:02;25.58;;;11.73;;
51636;SDS011;37713;53.254;6.460;2023-12-14T08:38:30;23.83;;;11.43;;
51636;SDS011;37713;53.254;6.460;2023-12-14T08:40:55;24.80;;;11.13;;
51636;SDS011;37713;53.254;6.460;2023-12-14T08:43:21;25.35;;;11.55;;
51636;SDS011;37713;53.254;6.460;2023-12-14T08:45:47;24.55;;;11.65;;
51636;SDS011;37713;53.254;6.460;2023-12-14T08:48:13;24.23;;;11.15;;
51636;SDS011;37713;53.254;6.460;2023-12-14T08:50:39;24.73;;;12.45;;
51636;SDS011;37713;53.254;6.460;2023-12-14T08:53:05;28.80;;;11.18;;
51636;SDS011;37713;53.254;6.460;2023-12-14T08:55:32;29.83;;;12.13;;
51636;SDS011;37713;53.254;6.460;2023-12-14T08:57:57;26.80;;;11.30;;
51636;SDS011;37713;53.254;6.460;2023-12-14T09:00:23;27.30;;;11.85;;
51636;SDS011;37713;53.254;6.460;2023-12-14T09:02:49;24.27;;;11.43;;
51636;SDS011;37713;53.254;6.460;2023-12-14T09:05:15;24.20;;;11.40;;
51636;SDS011;37713;53.254;6.460;2023-12-14T09:07:42;30.27;;;11.32;;
51636;SDS011;37713;53.254;6.460;2023-12-14T09:10:08;25.52;;;10.77;;
51636;SDS011;37713;53.254;6.460;2023-12-14T09:12:34;27.48;;;11.85;;
51636;SDS011;37713;53.254;6.460;2023-12-14T09:15:03;23.05;;;11.65;;
51636;SDS011;37713;53.254;6.460;2023-12-14T09:17:29;25.83;;;11.60;;
51636;SDS011;37713;53.254;6.460;2023-12-14T09:20:01;28.60;;;12.30;;
51636;SDS011;37713;53.254;6.460;2023-12-14T09:22:30;24.15;;;11.45;;
51636;SDS011;37713;53.254;6.460;2023-12-14T09:24:56;22.88;;;11.13;;
51636;SDS011;37713;53.254;6.460;2023-12-14T09:27:23;23.17;;;10.98;;
51636;SDS011;37713;53.254;6.460;2023-12-14T09:29:48;25.88;;;12.18;;
51636;SDS011;37713;53.254;6.460;2023-12-14T09:32:14;24.80;;;11.63;;
51636;SDS011;37713;53.254;6.460;2023-12-14T09:34:42;26.10;;;12.55;;
51636;SDS011;37713;53.254;6.460;2023-12-14T09:37:08;32.38;;;13.68;;
51636;SDS011;37713;53.254;6.460;2023-12-14T09:39:34;28.48;;;12.70;;
51636;SDS011;37713;53.254;6.460;2023-12-14T09:42:02;25.45;;;11.63;;
51636;SDS011;37713;53.254;6.460;2023-12-14T09:44:32;26.30;;;11.63;;
51636;SDS011;37713;53.254;6.460;2023-12-14T09:46:58;30.67;;;11.90;;
51636;SDS011;37713;53.254;6.460;2023-12-14T09:49:31;28.40;;;12.88;;
51636;SDS011;37713;53.254;6.460;2023-12-14T09:51:57;27.42;;;12.25;;
51636;SDS011;37713;53.254;6.460;2023-12-14T09:54:26;29.55;;;11.85;;
51636;SDS011;37713;53.254;6.460;2023-12-14T09:56:52;26.00;;;12.93;;
51636;SDS011;37713;53.254;6.460;2023-12-14T09:59:19;24.75;;;12.85;;
51636;SDS011;37713;53.254;6.460;2023-12-14T10:01:45;24.05;;;12.70;;
51636;SDS011;37713;53.254;6.460;2023-12-14T10:04:12;27.42;;;12.68;;
51636;SDS011;37713;53.254;6.460;2023-12-14T10:06:40;28.00;;;13.23;;
51636;SDS011;37713;53.254;6.460;2023-12-14T10:09:07;31.27;;;15.05;;
51636;SDS011;37713;53.254;6.460;2023-12-14T10:11:43;33.75;;;14.63;;
51636;SDS011;37713;53.254;6.460;2023-12-14T10:14:23;27.67;;;13.23;;
51636;SDS011;37713;53.254;6.460;2023-12-14T10:16:50;26.85;;;13.18;;
51636;SDS011;37713;53.254;6.460;2023-12-14T10:19:17;30.65;;;13.35;;
51636;SDS011;37713;53.254;6.460;2023-12-14T10:21:45;30.23;;;13.90;;
51636;SDS011;37713;53.254;6.460;2023-12-14T10:24:12;27.02;;;12.98;;
51636;SDS011;37713;53.254;6.460;2023-12-14T10:26:39;28.40;;;14.55;;
51636;SDS011;37713;53.254;6.460;2023-12-14T10:29:06;32.88;;;15.13;;
51636;SDS011;37713;53.254;6.460;2023-12-14T10:31:32;39.35;;;16.35;;
51636;SDS011;37713;53.254;6.460;2023-12-14T10:34:02;36.70;;;15.23;;
51636;SDS011;37713;53.254;6.460;2023-12-14T10:36:29;27.48;;;13.73;;
51636;SDS011;37713;53.254;6.460;2023-12-14T10:38:59;29.52;;;13.38;;
51636;SDS011;37713;53.254;6.460;2023-12-14T10:41:26;25.23;;;12.55;;
51636;SDS011;37713;53.254;6.460;2023-12-14T10:43:57;27.13;;;13.25;;
51636;SDS011;37713;53.254;6.460;2023-12-14T10:46:25;26.50;;;12.05;;
51636;SDS011;37713;53.254;6.460;2023-12-14T10:48:53;25.55;;;12.65;;
51636;SDS011;37713;53.254;6.460;2023-12-14T10:51:20;26.38;;;12.65;;
51636;SDS011;37713;53.254;6.460;2023-12-14T10:53:48;28.10;;;13.35;;
51636;SDS011;37713;53.254;6.460;2023-12-14T10:56:15;29.23;;;13.55;;
51636;SDS011;37713;53.254;6.460;2023-12-14T10:58:46;25.60;;;12.10;;
51636;SDS011;37713;53.254;6.460;2023-12-14T11:01:24;30.10;;;12.07;;
51636;SDS011;37713;53.254;6.460;2023-12-14T11:03:51;24.95;;;12.25;;
51636;SDS011;37713;53.254;6.460;2023-12-14T11:06:21;26.70;;;12.73;;
51636;SDS011;37713;53.254;6.460;2023-12-14T11:08:50;21.77;;;11.97;;
51636;SDS011;37713;53.254;6.460;2023-12-14T11:11:17;22.42;;;11.65;;
51636;SDS011;37713;53.254;6.460;2023-12-14T11:13:50;23.02;;;12.45;;
51636;SDS011;37713;53.254;6.460;2023-12-14T11:16:21;22.83;;;11.25;;
51636;SDS011;37713;53.254;6.460;2023-12-14T11:21:19;28.98;;;12.57;;
51636;SDS011;37713;53.254;6.460;2023-12-14T11:23:48;23.23;;;12.50;;
51636;SDS011;37713;53.254;6.460;2023-12-14T11:26:20;24.25;;;12.82;;
51636;SDS011;37713;53.254;6.460;2023-12-14T11:28:47;26.02;;;12.15;;
51636;SDS011;37713;53.254;6.460;2023-12-14T11:31:13;24.33;;;13.07;;
51636;SDS011;37713;53.254;6.460;2023-12-14T11:33:39;23.70;;;12.15;;
51636;SDS011;37713;53.254;6.460;2023-12-14T11:36:06;27.20;;;12.93;;
51636;SDS011;37713;53.254;6.460;2023-12-14T11:38:33;28.42;;;12.73;;
51636;SDS011;37713;53.254;6.460;2023-12-14T11:41:00;25.65;;;12.85;;
51636;SDS011;37713;53.254;6.460;2023-12-14T11:43:26;28.65;;;12.55;;
51636;SDS011;37713;53.254;6.460;2023-12-14T11:45:52;25.02;;;12.60;;
51636;SDS011;37713;53.254;6.460;2023-12-14T11:48:19;22.98;;;12.20;;
51636;SDS011;37713;53.254;6.460;2023-12-14T11:50:46;25.77;;;12.07;;
51636;SDS011;37713;53.254;6.460;2023-12-14T11:53:12;26.08;;;12.40;;
51636;SDS011;37713;53.254;6.460;2023-12-14T11:55:41;23.23;;;12.65;;
51636;SDS011;37713;53.254;6.460;2023-12-14T11:58:08;26.75;;;11.65;;
51636;SDS011;37713;53.254;6.460;2023-12-14T12:00:39;23.85;;;11.65;;
51636;SDS011;37713;53.254;6.460;2023-12-14T12:03:08;25.58;;;12.50;;
51636;SDS011;37713;53.254;6.460;2023-12-14T12:05:47;25.52;;;11.60;;
51636;SDS011;37713;53.254;6.460;2023-12-14T12:08:15;25.42;;;12.98;;
51636;SDS011;37713;53.254;6.460;2023-12-14T12:10:43;24.38;;;12.02;;
51636;SDS011;37713;53.254;6.460;2023-12-14T12:13:12;25.95;;;11.82;;
51636;SDS011;37713;53.254;6.460;2023-12-14T12:15:38;26.63;;;12.00;;
51636;SDS011;37713;53.254;6.460;2023-12-14T12:18:07;23.00;;;11.52;;
51636;SDS011;37713;53.254;6.460;2023-12-14T12:20:34;23.83;;;11.40;;
51636;SDS011;37713;53.254;6.460;2023-12-14T12:23:01;23.38;;;11.82;;
51636;SDS011;37713;53.254;6.460;2023-12-14T12:25:28;23.83;;;11.43;;
51636;SDS011;37713;53.254;6.460;2023-12-14T12:27:56;21.70;;;11.60;;
51636;SDS011;37713;53.254;6.460;2023-12-14T12:30:22;20.65;;;10.70;;
51636;SDS011;37713;53.254;6.460;2023-12-14T12:32:48;26.25;;;11.77;;
51636;SDS011;37713;53.254;6.460;2023-12-14T12:35:17;24.20;;;11.80;;
51636;SDS011;37713;53.254;6.460;2023-12-14T12:37:43;23.35;;;11.60;;
51636;SDS011;37713;53.254;6.460;2023-12-14T12:40:09;23.50;;;11.40;;
51636;SDS011;37713;53.254;6.460;2023-12-14T12:42:36;22.60;;;11.30;;
51636;SDS011;37713;53.254;6.460;2023-12-14T12:45:02;23.75;;;11.25;;
51636;SDS011;37713;53.254;6.460;2023-12-14T12:47:29;22.40;;;11.43;;
51636;SDS011;37713;53.254;6.460;2023-12-14T12:49:55;25.02;;;12.10;;
51636;SDS011;37713;53.254;6.460;2023-12-14T12:52:21;22.13;;;10.98;;
51636;SDS011;37713;53.254;6.460;2023-12-14T12:54:47;25.65;;;11.45;;
51636;SDS011;37713;53.254;6.460;2023-12-14T12:57:13;23.77;;;11.48;;
51636;SDS011;37713;53.254;6.460;2023-12-14T12:59:39;22.95;;;11.57;;
51636;SDS011;37713;53.254;6.460;2023-12-14T13:02:05;23.38;;;11.10;;
51636;SDS011;37713;53.254;6.460;2023-12-14T13:04:31;21.83;;;11.57;;
51636;SDS011;37713;53.254;6.460;2023-12-14T13:06:58;24.23;;;12.18;;
51636;SDS011;37713;53.254;6.460;2023-12-14T13:09:27;25.58;;;11.82;;
51636;SDS011;37713;53.254;6.460;2023-12-14T13:11:53;24.77;;;12.98;;
51636;SDS011;37713;53.254;6.460;2023-12-14T13:14:18;20.42;;;12.32;;
51636;SDS011;37713;53.254;6.460;2023-12-14T13:16:44;22.65;;;12.00;;
51636;SDS011;37713;53.254;6.460;2023-12-14T13:19:10;22.42;;;11.25;;
51636;SDS011;37713;53.254;6.460;2023-12-14T13:21:36;22.95;;;12.10;;
51636;SDS011;37713;53.254;6.460;2023-12-14T13:24:02;24.92;;;12.18;;
51636;SDS011;37713;53.254;6.460;2023-12-14T13:26:29;21.83;;;11.63;;
51636;SDS011;37713;53.254;6.460;2023-12-14T13:28:55;21.75;;;11.68;;
51636;SDS011;37713;53.254;6.460;2023-12-14T13:31:20;22.08;;;11.77;;
51636;SDS011;37713;53.254;6.460;2023-12-14T13:33:46;24.10;;;12.57;;
51636;SDS011;37713;53.254;6.460;2023-12-14T13:36:13;22.95;;;11.85;;
51636;SDS011;37713;53.254;6.460;2023-12-14T13:38:40;23.67;;;12.02;;
51636;SDS011;37713;53.254;6.460;2023-12-14T13:41:07;23.52;;;12.43;;
51636;SDS011;37713;53.254;6.460;2023-12-14T13:43:33;20.58;;;11.23;;
51636;SDS011;37713;53.254;6.460;2023-12-14T13:45:59;23.92;;;12.30;;
51636;SDS011;37713;53.254;6.460;2023-12-14T13:48:25;21.60;;;12.75;;
51636;SDS011;37713;53.254;6.460;2023-12-14T13:50:55;26.95;;;13.00;;
51636;SDS011;37713;53.254;6.460;2023-12-14T13:53:22;29.25;;;13.65;;
51636;SDS011;37713;53.254;6.460;2023-12-14T13:55:48;22.85;;;12.95;;
51636;SDS011;37713;53.254;6.460;2023-12-14T13:58:15;23.80;;;11.75;;
51636;SDS011;37713;53.254;6.460;2023-12-14T14:00:42;26.65;;;11.30;;
51636;SDS011;37713;53.254;6.460;2023-12-14T14:03:08;23.95;;;11.63;;
51636;SDS011;37713;53.254;6.460;2023-12-14T14:05:34;22.67;;;11.40;;
51636;SDS011;37713;53.254;6.460;2023-12-14T14:08:00;20.45;;;10.48;;
51636;SDS011;37713;53.254;6.460;2023-12-14T14:10:27;20.45;;;11.27;;
51636;SDS011;37713;53.254;6.460;2023-12-14T14:12:53;24.67;;;11.05;;
51636;SDS011;37713;53.254;6.460;2023-12-14T14:15:18;22.27;;;10.45;;
51636;SDS011;37713;53.254;6.460;2023-12-14T14:17:47;23.73;;;10.63;;
51636;SDS011;37713;53.254;6.460;2023-12-14T14:20:17;21.02;;;10.40;;
51636;SDS011;37713;53.254;6.460;2023-12-14T14:22:43;19.33;;;10.48;;
51636;SDS011;37713;53.254;6.460;2023-12-14T14:25:09;20.02;;;9.65;;
51636;SDS011;37713;53.254;6.460;2023-12-14T14:27:35;18.42;;;10.38;;
51636;SDS011;37713;53.254;6.460;2023-12-14T14:30:01;21.05;;;12.35;;